createdAt,value
2022-10-19T00:00:24.261Z,1028.10
2022-10-19T00:01:24.248Z,1028.16
2022-10-19T00:02:24.416Z,1028.23
2022-10-19T00:03:24.221Z,1028.21
2022-10-19T00:04:24.209Z,1028.26
2022-10-19T00:05:24.206Z,1028.39
2022-10-19T00:06:24.186Z,1028.29
2022-10-19T00:07:24.170Z,1028.29
2022-10-19T00:08:24.212Z,1028.27
2022-10-19T00:09:24.147Z,1028.29
2022-10-19T00:10:24.139Z,1028.25
2022-10-19T00:11:25.952Z,1028.24
2022-10-19T00:12:24.121Z,1028.24
2022-10-19T00:13:24.109Z,1028.34
2022-10-19T00:14:24.142Z,1028.31
2022-10-19T00:15:24.082Z,1028.36
2022-10-19T00:16:24.090Z,1028.31
2022-10-19T00:17:24.063Z,1028.31
2022-10-19T00:18:24.115Z,1028.31
2022-10-19T00:19:24.045Z,1028.22
2022-10-19T00:20:24.085Z,1028.28
2022-10-19T00:21:24.024Z,1028.32
2022-10-19T00:22:24.027Z,1028.32
2022-10-19T00:23:24.046Z,1028.36
2022-10-19T00:24:23.990Z,1028.33
2022-10-19T00:25:23.970Z,1028.38
2022-10-19T00:26:24.011Z,1028.29
2022-10-19T00:27:23.958Z,1028.27
2022-10-19T00:28:23.964Z,1028.39
2022-10-19T00:29:24.012Z,1028.42
2022-10-19T00:30:23.919Z,1028.37
2022-10-19T00:31:23.910Z,1028.45
2022-10-19T00:32:24.041Z,1028.59
2022-10-19T00:33:23.876Z,1028.46
2022-10-19T00:34:23.892Z,1028.50
2022-10-19T00:35:23.875Z,1028.45
2022-10-19T00:36:23.869Z,1028.47
2022-10-19T00:37:23.844Z,1028.44
2022-10-19T00:38:23.888Z,1028.44
2022-10-19T00:39:23.818Z,1028.46
2022-10-19T00:40:23.829Z,1028.41
2022-10-19T00:41:23.801Z,1028.46
2022-10-19T00:42:23.786Z,1028.53
2022-10-19T00:43:23.781Z,1028.52
2022-10-19T00:44:23.805Z,1028.52
2022-10-19T00:45:23.748Z,1028.54
2022-10-19T00:46:23.754Z,1028.67
2022-10-19T00:47:23.729Z,1028.61
2022-10-19T00:48:23.720Z,1028.63
2022-10-19T00:49:23.727Z,1028.66
2022-10-19T00:50:23.742Z,1028.56
2022-10-19T00:51:23.683Z,1028.58
2022-10-19T00:52:23.699Z,1028.64
2022-10-19T00:53:23.692Z,1028.74
2022-10-19T00:54:23.643Z,1028.67
2022-10-19T00:55:23.640Z,1028.72
2022-10-19T00:56:23.660Z,1028.66
2022-10-19T00:57:23.610Z,1028.65
2022-10-19T00:58:23.649Z,1028.61
2022-10-19T00:59:23.614Z,1028.67
2022-10-19T01:00:23.595Z,1028.66
2022-10-19T01:01:23.627Z,1028.61
2022-10-19T01:02:23.875Z,1028.60
2022-10-19T01:03:23.561Z,1028.61
2022-10-19T01:04:23.560Z,1028.61
2022-10-19T01:05:23.528Z,1028.60
2022-10-19T01:06:23.515Z,1028.54
2022-10-19T01:07:23.497Z,1028.53
2022-10-19T01:08:23.534Z,1028.54
2022-10-19T01:09:23.470Z,1028.59
2022-10-19T01:10:23.480Z,1028.56
2022-10-19T01:11:24.478Z,1028.64
2022-10-19T01:12:23.448Z,1028.60
2022-10-19T01:13:23.438Z,1028.58
2022-10-19T01:14:23.477Z,1028.55
2022-10-19T01:15:23.432Z,1028.63
2022-10-19T01:16:23.412Z,1028.67
2022-10-19T01:17:23.390Z,1028.71
2022-10-19T01:18:23.373Z,1028.67
2022-10-19T01:19:23.364Z,1028.59
2022-10-19T01:20:23.402Z,1028.61
2022-10-19T01:21:23.348Z,1028.59
2022-10-19T01:22:23.346Z,1028.61
2022-10-19T01:23:23.327Z,1028.59
2022-10-19T01:24:23.339Z,1028.60
2022-10-19T01:25:23.294Z,1028.60
2022-10-19T01:26:23.450Z,1028.63
2022-10-19T01:27:23.297Z,1028.60
2022-10-19T01:28:23.524Z,1028.60
2022-10-19T01:29:23.251Z,1028.56
2022-10-19T01:30:23.244Z,1028.60
2022-10-19T01:31:23.233Z,1028.58
2022-10-19T01:32:23.271Z,1028.62
2022-10-19T01:33:23.252Z,1028.63
2022-10-19T01:34:23.204Z,1028.60
2022-10-19T01:35:23.187Z,1028.65
2022-10-19T01:36:23.172Z,1028.64
2022-10-19T01:37:23.164Z,1028.58
2022-10-19T01:38:23.969Z,1028.60
2022-10-19T01:39:23.134Z,1028.58
2022-10-19T01:40:23.144Z,1028.57
2022-10-19T01:41:23.113Z,1028.58
2022-10-19T01:42:23.105Z,1028.58
2022-10-19T01:43:23.209Z,1028.60
2022-10-19T01:44:23.139Z,1028.60
2022-10-19T01:45:23.969Z,1028.62
2022-10-19T01:46:23.056Z,1028.64
2022-10-19T01:47:23.056Z,1028.63
2022-10-19T01:48:23.036Z,1028.61
2022-10-19T01:49:23.028Z,1028.64
2022-10-19T01:50:23.057Z,1028.70
2022-10-19T01:51:23.998Z,1028.66
2022-10-19T01:52:23.009Z,1028.66
2022-10-19T01:53:22.986Z,1028.59
2022-10-19T01:54:22.971Z,1028.58
2022-10-19T01:55:22.956Z,1028.63
2022-10-19T01:56:22.987Z,1028.60
2022-10-19T01:57:23.039Z,1028.66
2022-10-19T01:58:22.931Z,1028.64
2022-10-19T01:59:23.802Z,1028.65
2022-10-19T02:00:22.929Z,1028.69
2022-10-19T02:01:22.887Z,1028.64
2022-10-19T02:02:23.018Z,1028.59
2022-10-19T02:03:22.889Z,1028.56
2022-10-19T02:04:22.898Z,1028.56
2022-10-19T02:05:22.848Z,1028.55
2022-10-19T02:06:22.860Z,1028.61
2022-10-19T02:07:22.900Z,1028.60
2022-10-19T02:08:22.861Z,1028.54
2022-10-19T02:09:22.815Z,1028.50
2022-10-19T02:10:22.863Z,1028.51
2022-10-19T02:11:22.788Z,1028.49
2022-10-19T02:12:22.776Z,1028.49
2022-10-19T02:13:22.756Z,1028.50
2022-10-19T02:14:22.799Z,1028.54
2022-10-19T02:15:22.821Z,1028.47
2022-10-19T02:16:22.786Z,1028.45
2022-10-19T02:17:22.813Z,1028.45
2022-10-19T02:18:22.701Z,1028.52
2022-10-19T02:20:22.737Z,1028.49
2022-10-19T02:21:22.705Z,1028.47
2022-10-19T02:22:23.486Z,1028.48
2022-10-19T02:23:22.668Z,1028.49
2022-10-19T02:24:22.713Z,1028.57
2022-10-19T02:25:22.648Z,1028.52
2022-10-19T02:26:22.828Z,1028.51
2022-10-19T02:27:22.740Z,1028.54
2022-10-19T02:28:22.672Z,1028.57
2022-10-19T02:29:22.667Z,1028.51
2022-10-19T02:30:22.586Z,1028.47
2022-10-19T02:31:22.622Z,1028.50
2022-10-19T02:32:22.729Z,1028.50
2022-10-19T02:33:22.587Z,1028.53
2022-10-19T02:34:22.539Z,1028.54
2022-10-19T02:35:22.518Z,1028.49
2022-10-19T02:36:22.516Z,1028.50
2022-10-19T02:37:25.495Z,1028.46
2022-10-19T02:38:22.532Z,1028.54
2022-10-19T02:39:22.471Z,1028.45
2022-10-19T02:40:22.470Z,1028.49
2022-10-19T02:41:22.439Z,1028.52
2022-10-19T02:42:22.437Z,1028.50
2022-10-19T02:43:22.440Z,1028.46
2022-10-19T02:44:22.582Z,1028.43
2022-10-19T02:45:22.393Z,1028.42
2022-10-19T02:46:22.384Z,1028.46
2022-10-19T02:47:22.489Z,1028.48
2022-10-19T02:48:22.398Z,1028.50
2022-10-19T02:49:22.358Z,1028.48
2022-10-19T02:50:22.404Z,1028.50
2022-10-19T02:51:22.328Z,1028.51
2022-10-19T02:52:22.320Z,1028.53
2022-10-19T02:53:22.303Z,1028.49
2022-10-19T02:54:22.325Z,1028.48
2022-10-19T02:55:22.286Z,1028.52
2022-10-19T02:56:22.317Z,1028.49
2022-10-19T02:57:22.967Z,1028.47
2022-10-19T02:58:22.257Z,1028.46
2022-10-19T02:59:22.239Z,1028.51
2022-10-19T03:00:22.241Z,1028.56
2022-10-19T03:01:22.214Z,1028.55
2022-10-19T03:02:22.266Z,1028.62
2022-10-19T03:03:22.219Z,1028.59
2022-10-19T03:04:22.218Z,1028.51
2022-10-19T03:05:22.195Z,1028.52
2022-10-19T03:06:22.189Z,1028.55
2022-10-19T03:07:22.151Z,1028.56
2022-10-19T03:08:22.184Z,1028.58
2022-10-19T03:09:22.130Z,1028.66
2022-10-19T03:10:22.141Z,1028.63
2022-10-19T03:11:22.106Z,1028.57
2022-10-19T03:12:22.148Z,1028.58
2022-10-19T03:13:22.088Z,1028.59
2022-10-19T03:14:22.121Z,1028.59
2022-10-19T03:15:22.978Z,1028.52
2022-10-19T03:16:22.051Z,1028.48
2022-10-19T03:17:22.100Z,1028.50
2022-10-19T03:18:22.022Z,1028.43
2022-10-19T03:19:22.013Z,1028.53
2022-10-19T03:20:22.040Z,1028.51
2022-10-19T03:21:22.013Z,1028.41
2022-10-19T03:22:22.026Z,1028.47
2022-10-19T03:23:21.962Z,1028.49
2022-10-19T03:24:21.973Z,1028.49
2022-10-19T03:25:21.941Z,1028.44
2022-10-19T03:26:21.983Z,1028.48
2022-10-19T03:27:21.950Z,1028.42
2022-10-19T03:28:21.902Z,1028.49
2022-10-19T03:29:21.907Z,1028.39
2022-10-19T03:30:21.894Z,1028.43
2022-10-19T03:31:21.881Z,1028.42
2022-10-19T03:32:21.913Z,1028.42
2022-10-19T03:33:21.942Z,1028.47
2022-10-19T03:34:21.888Z,1028.48
2022-10-19T03:35:21.841Z,1028.46
2022-10-19T03:36:21.813Z,1028.52
2022-10-19T03:37:21.818Z,1028.48
2022-10-19T03:38:21.847Z,1028.48
2022-10-19T03:39:21.828Z,1028.49
2022-10-19T03:40:21.861Z,1028.43
2022-10-19T03:41:21.785Z,1028.49
2022-10-19T03:42:21.756Z,1028.50
2022-10-19T03:43:21.743Z,1028.54
2022-10-19T03:44:21.803Z,1028.57
2022-10-19T03:45:21.985Z,1028.58
2022-10-19T03:46:21.707Z,1028.53
2022-10-19T03:47:21.701Z,1028.52
2022-10-19T03:48:21.684Z,1028.54
2022-10-19T03:49:21.683Z,1028.54
2022-10-19T03:50:21.699Z,1028.58
2022-10-19T03:51:21.670Z,1028.55
2022-10-19T03:52:21.637Z,1028.55
2022-10-19T03:53:21.644Z,1028.55
2022-10-19T03:54:24.983Z,1028.57
2022-10-19T03:55:21.611Z,1028.53
2022-10-19T03:56:21.640Z,1028.52
2022-10-19T03:57:21.624Z,1028.54
2022-10-19T03:58:21.601Z,1028.53
2022-10-19T03:59:21.570Z,1028.53
2022-10-19T04:00:21.552Z,1028.50
2022-10-19T04:01:21.598Z,1028.57
2022-10-19T04:02:21.576Z,1028.53
2022-10-19T04:03:21.545Z,1028.62
2022-10-19T04:04:21.623Z,1028.57
2022-10-19T04:05:21.496Z,1028.55
2022-10-19T04:06:22.191Z,1028.58
2022-10-19T04:07:21.471Z,1028.54
2022-10-19T04:08:21.494Z,1028.59
2022-10-19T04:09:21.483Z,1028.60
2022-10-19T04:10:21.466Z,1028.56
2022-10-19T04:11:21.432Z,1028.59
2022-10-19T04:12:21.423Z,1028.59
2022-10-19T04:13:21.406Z,1028.59
2022-10-19T04:14:31.841Z,1028.54
2022-10-19T04:15:21.397Z,1028.56
2022-10-19T04:16:21.369Z,1028.57
2022-10-19T04:17:21.380Z,1028.59
2022-10-19T04:18:21.349Z,1028.60
2022-10-19T04:19:21.347Z,1028.62
2022-10-19T04:20:21.363Z,1028.67
2022-10-19T04:21:21.317Z,1028.65
2022-10-19T04:22:21.552Z,1028.68
2022-10-19T04:23:21.293Z,1028.64
2022-10-19T04:24:21.282Z,1028.64
2022-10-19T04:25:21.273Z,1028.66
2022-10-19T04:26:21.288Z,1028.60
2022-10-19T04:27:21.259Z,1028.64
2022-10-19T04:28:21.229Z,1028.63
2022-10-19T04:29:22.818Z,1028.63
2022-10-19T04:30:21.205Z,1028.66
2022-10-19T04:31:21.201Z,1028.68
2022-10-19T04:32:21.230Z,1028.70
2022-10-19T04:33:21.204Z,1028.71
2022-10-19T04:34:21.228Z,1028.69
2022-10-19T04:35:21.449Z,1028.74
2022-10-19T04:36:21.135Z,1028.75
2022-10-19T04:37:21.937Z,1028.73
2022-10-19T04:38:21.177Z,1028.79
2022-10-19T04:39:21.154Z,1028.79
2022-10-19T04:40:21.099Z,1028.83
2022-10-19T04:41:21.103Z,1028.81
2022-10-19T04:42:21.075Z,1028.84
2022-10-19T04:43:21.067Z,1028.82
2022-10-19T04:44:21.214Z,1028.84
2022-10-19T04:45:21.050Z,1028.88
2022-10-19T04:46:21.033Z,1028.91
2022-10-19T04:47:21.019Z,1028.87
2022-10-19T04:48:21.005Z,1028.91
2022-10-19T04:49:21.008Z,1028.85
2022-10-19T04:50:21.359Z,1028.90
2022-10-19T04:51:20.979Z,1028.86
2022-10-19T04:52:21.212Z,1028.88
2022-10-19T04:53:21.137Z,1028.91
2022-10-19T04:54:20.944Z,1028.94
2022-10-19T04:55:20.922Z,1028.94
2022-10-19T04:56:20.957Z,1028.95
2022-10-19T04:57:20.904Z,1028.91
2022-10-19T04:58:20.901Z,1028.90
2022-10-19T04:59:20.877Z,1028.92
2022-10-19T05:00:20.874Z,1028.89
2022-10-19T05:01:20.960Z,1028.92
2022-10-19T05:02:20.886Z,1028.87
2022-10-19T05:03:21.490Z,1028.89
2022-10-19T05:04:20.830Z,1028.88
2022-10-19T05:05:20.837Z,1028.87
2022-10-19T05:06:20.807Z,1028.86
2022-10-19T05:07:20.826Z,1028.86
2022-10-19T05:08:20.818Z,1028.86
2022-10-19T05:09:20.790Z,1028.90
2022-10-19T05:10:20.805Z,1028.77
2022-10-19T05:11:20.746Z,1028.75
2022-10-19T05:12:20.750Z,1028.74
2022-10-19T05:13:20.726Z,1028.76
2022-10-19T05:14:20.832Z,1028.77
2022-10-19T05:15:20.741Z,1028.72
2022-10-19T05:16:20.687Z,1028.71
2022-10-19T05:17:20.704Z,1028.79
2022-10-19T05:18:20.663Z,1028.71
2022-10-19T05:19:20.671Z,1028.74
2022-10-19T05:20:20.680Z,1028.69
2022-10-19T05:21:20.656Z,1028.66
2022-10-19T05:22:20.628Z,1028.69
2022-10-19T05:23:20.681Z,1028.71
2022-10-19T05:24:20.603Z,1028.63
2022-10-19T05:25:20.595Z,1028.65
2022-10-19T05:26:20.624Z,1028.63
2022-10-19T05:27:20.567Z,1028.63
2022-10-19T05:28:28.504Z,1028.66
2022-10-19T05:29:26.518Z,1028.65
2022-10-19T05:30:26.520Z,1028.57
2022-10-19T05:31:20.547Z,1028.61
2022-10-19T05:32:21.467Z,1028.60
2022-10-19T05:33:20.511Z,1028.65
2022-10-19T05:34:20.505Z,1028.61
2022-10-19T05:35:22.506Z,1028.58
2022-10-19T05:36:20.480Z,1028.58
2022-10-19T05:37:20.455Z,1028.58
2022-10-19T05:38:20.491Z,1028.55
2022-10-19T05:39:20.480Z,1028.50
2022-10-19T05:40:20.443Z,1028.52
2022-10-19T05:41:20.440Z,1028.48
2022-10-19T05:42:20.402Z,1028.46
2022-10-19T05:43:20.387Z,1028.45
2022-10-19T05:44:20.429Z,1028.43
2022-10-19T05:45:20.375Z,1028.46
2022-10-19T05:46:20.970Z,1028.50
2022-10-19T05:47:20.392Z,1028.48
2022-10-19T05:48:20.387Z,1028.48
2022-10-19T05:49:20.325Z,1028.52
2022-10-19T05:50:20.365Z,1028.49
2022-10-19T05:51:20.298Z,1028.47
2022-10-19T05:52:20.995Z,1028.47
2022-10-19T05:53:20.915Z,1028.45
2022-10-19T05:54:21.857Z,1028.44
2022-10-19T05:55:20.255Z,1028.47
2022-10-19T05:56:20.326Z,1028.44
2022-10-19T05:57:20.239Z,1028.44
2022-10-19T05:58:20.223Z,1028.42
2022-10-19T05:59:20.259Z,1028.42
2022-10-19T06:00:20.186Z,1028.38
2022-10-19T06:01:20.973Z,1028.35
2022-10-19T06:02:20.257Z,1028.37
2022-10-19T06:03:20.168Z,1028.41
2022-10-19T06:04:20.168Z,1028.38
2022-10-19T06:05:20.167Z,1028.39
2022-10-19T06:06:20.170Z,1028.32
2022-10-19T06:07:20.123Z,1028.40
2022-10-19T06:08:20.140Z,1028.38
2022-10-19T06:09:21.005Z,1028.40
2022-10-19T06:10:20.081Z,1028.37
2022-10-19T06:11:20.096Z,1028.39
2022-10-19T06:12:24.260Z,1028.43
2022-10-19T06:13:20.178Z,1028.46
2022-10-19T06:14:20.098Z,1028.44
2022-10-19T06:15:20.034Z,1028.47
2022-10-19T06:16:20.007Z,1028.47
2022-10-19T06:17:20.031Z,1028.49
2022-10-19T06:18:20.910Z,1028.53
2022-10-19T06:19:19.986Z,1028.54
2022-10-19T06:20:20.029Z,1028.57
2022-10-19T06:21:19.958Z,1028.51
2022-10-19T06:22:19.959Z,1028.59
2022-10-19T06:23:19.935Z,1028.61
2022-10-19T06:24:19.966Z,1028.63
2022-10-19T06:25:20.498Z,1028.61
2022-10-19T06:26:19.956Z,1028.61
2022-10-19T06:27:20.000Z,1028.63
2022-10-19T06:28:19.875Z,1028.72
2022-10-19T06:29:19.873Z,1028.71
2022-10-19T06:30:19.935Z,1028.73
2022-10-19T06:31:19.857Z,1028.73
2022-10-19T06:32:19.875Z,1028.80
2022-10-19T06:33:19.830Z,1028.80
2022-10-19T06:34:19.859Z,1028.82
2022-10-19T06:35:19.801Z,1028.82
2022-10-19T06:36:19.826Z,1028.77
2022-10-19T06:37:19.792Z,1028.80
2022-10-19T06:38:20.053Z,1028.89
2022-10-19T06:39:19.766Z,1028.82
2022-10-19T06:40:19.778Z,1028.82
2022-10-19T06:41:19.741Z,1028.82
2022-10-19T06:42:19.757Z,1028.79
2022-10-19T06:43:19.725Z,1028.83
2022-10-19T06:44:19.806Z,1028.81
2022-10-19T06:45:20.015Z,1028.81
2022-10-19T06:46:19.675Z,1028.83
2022-10-19T06:47:19.681Z,1028.82
2022-10-19T06:48:19.663Z,1028.77
2022-10-19T06:49:19.656Z,1028.86
2022-10-19T06:50:19.678Z,1028.85
2022-10-19T06:51:19.629Z,1028.87
2022-10-19T06:52:19.611Z,1028.81
2022-10-19T06:53:19.609Z,1028.85
2022-10-19T06:54:19.613Z,1028.81
2022-10-19T06:55:19.647Z,1028.78
2022-10-19T06:56:19.639Z,1028.87
2022-10-19T06:57:19.807Z,1028.85
2022-10-19T06:58:19.555Z,1028.85
2022-10-19T06:59:19.539Z,1028.84
2022-10-19T07:00:19.514Z,1028.84
2022-10-19T07:01:19.788Z,1028.85
2022-10-19T07:02:19.617Z,1028.88
2022-10-19T07:03:19.516Z,1028.91
2022-10-19T07:04:19.471Z,1028.86
2022-10-19T07:05:19.471Z,1028.81
2022-10-19T07:06:19.507Z,1028.86
2022-10-19T07:07:19.568Z,1028.88
2022-10-19T07:08:19.556Z,1028.88
2022-10-19T07:09:19.421Z,1028.91
2022-10-19T07:10:19.411Z,1028.92
2022-10-19T07:11:19.404Z,1028.95
2022-10-19T07:12:19.390Z,1028.96
2022-10-19T07:13:19.385Z,1028.95
2022-10-19T07:14:19.419Z,1029.00
2022-10-19T07:15:19.357Z,1029.00
2022-10-19T07:16:20.985Z,1029.02
2022-10-19T07:17:19.326Z,1029.06
2022-10-19T07:18:19.322Z,1029.07
2022-10-19T07:19:19.343Z,1029.09
2022-10-19T07:20:19.370Z,1029.05
2022-10-19T07:21:19.287Z,1029.08
2022-10-19T07:22:24.349Z,1029.09
2022-10-19T07:23:19.281Z,1029.08
2022-10-19T07:24:19.256Z,1029.05
2022-10-19T07:25:19.241Z,1029.09
2022-10-19T07:26:19.281Z,1029.06
2022-10-19T07:27:19.232Z,1029.05
2022-10-19T07:28:20.081Z,1029.06
2022-10-19T07:29:20.005Z,1029.07
2022-10-19T07:30:19.193Z,1029.08
2022-10-19T07:31:19.211Z,1029.11
2022-10-19T07:32:19.236Z,1029.10
2022-10-19T07:33:19.183Z,1029.06
2022-10-19T07:34:19.148Z,1029.07
2022-10-19T07:35:19.133Z,1029.12
2022-10-19T07:36:19.122Z,1029.14
2022-10-19T07:37:19.110Z,1029.16
2022-10-19T07:38:19.162Z,1029.12
2022-10-19T07:39:19.094Z,1029.15
2022-10-19T07:40:19.086Z,1029.17
2022-10-19T07:41:19.062Z,1029.20
2022-10-19T07:42:19.077Z,1029.18
2022-10-19T07:43:19.047Z,1029.20
2022-10-19T07:44:19.153Z,1029.19
2022-10-19T07:45:19.069Z,1029.11
2022-10-19T07:46:19.015Z,1029.12
2022-10-19T07:47:19.008Z,1029.14
2022-10-19T07:48:18.983Z,1029.09
2022-10-19T07:49:19.011Z,1029.12
2022-10-19T07:50:19.029Z,1029.08
2022-10-19T07:51:19.010Z,1029.09
2022-10-19T07:52:18.982Z,1029.09
2022-10-19T07:53:18.930Z,1029.06
2022-10-19T07:54:18.933Z,1029.10
2022-10-19T07:55:18.949Z,1029.13
2022-10-19T07:56:18.928Z,1029.13
2022-10-19T07:57:19.400Z,1029.19
2022-10-19T07:58:18.874Z,1029.24
2022-10-19T07:59:18.872Z,1029.19
2022-10-19T08:00:18.856Z,1029.13
2022-10-19T08:01:18.841Z,1029.13
2022-10-19T08:02:18.949Z,1029.20
2022-10-19T08:04:13.770Z,1029.14
2022-10-19T08:05:00.211Z,1029.12
2022-10-19T08:05:18.837Z,1029.09
2022-10-19T08:06:18.783Z,1029.11
2022-10-19T08:07:18.773Z,1029.12
2022-10-19T08:08:18.801Z,1029.13
2022-10-19T08:09:47.139Z,1029.06
2022-10-19T08:10:18.771Z,1029.09
2022-10-19T08:11:18.726Z,1029.06
2022-10-19T08:12:18.713Z,1029.09
2022-10-19T08:13:18.705Z,1029.07
2022-10-19T08:14:18.758Z,1029.09
2022-10-19T08:15:18.707Z,1029.11
2022-10-19T08:16:18.677Z,1029.10
2022-10-19T08:17:18.687Z,1029.09
2022-10-19T08:18:18.693Z,1029.12
2022-10-19T08:19:18.636Z,1029.16
2022-10-19T08:20:18.919Z,1029.13
2022-10-19T08:21:18.615Z,1029.13
2022-10-19T08:22:18.600Z,1029.12
2022-10-19T08:23:18.592Z,1029.15
2022-10-19T08:24:18.590Z,1029.17
2022-10-19T08:25:18.574Z,1029.19
2022-10-19T08:26:19.407Z,1029.16
2022-10-19T08:27:18.546Z,1029.17
2022-10-19T08:28:18.547Z,1029.21
2022-10-19T08:29:18.688Z,1029.19
2022-10-19T08:30:18.665Z,1029.20
2022-10-19T08:31:18.498Z,1029.16
2022-10-19T08:32:18.616Z,1029.18
2022-10-19T08:33:18.537Z,1029.19
2022-10-19T08:34:18.462Z,1029.23
2022-10-19T08:35:18.462Z,1029.20
2022-10-19T08:36:18.447Z,1029.14
2022-10-19T08:37:26.422Z,1029.17
2022-10-19T08:38:18.498Z,1029.18
2022-10-19T08:39:18.412Z,1029.23
2022-10-19T08:40:18.422Z,1029.25
2022-10-19T08:41:18.422Z,1029.27
2022-10-19T08:42:18.389Z,1029.23
2022-10-19T08:43:18.371Z,1029.26
2022-10-19T08:44:18.400Z,1029.23
2022-10-19T08:45:18.379Z,1029.17
2022-10-19T08:46:18.336Z,1029.17
2022-10-19T08:47:22.341Z,1029.24
2022-10-19T08:48:18.329Z,1029.23
2022-10-19T08:49:18.327Z,1029.26
2022-10-19T08:50:18.343Z,1029.27
2022-10-19T08:51:18.967Z,1029.26
2022-10-19T08:52:18.267Z,1029.27
2022-10-19T08:53:18.279Z,1029.28
2022-10-19T08:54:18.242Z,1029.30
2022-10-19T08:55:20.561Z,1029.24
2022-10-19T08:56:32.543Z,1029.24
2022-10-19T08:57:18.294Z,1029.14
2022-10-19T08:58:18.480Z,1029.14
2022-10-19T08:59:18.185Z,1029.18
2022-10-19T09:00:18.180Z,1029.19
2022-10-19T09:01:18.165Z,1029.18
2022-10-19T09:02:18.192Z,1029.17
2022-10-19T09:03:23.131Z,1029.19
2022-10-19T09:04:18.144Z,1029.18
2022-10-19T09:05:18.136Z,1029.23
2022-10-19T09:06:18.112Z,1029.24
2022-10-19T09:07:18.096Z,1029.22
2022-10-19T09:08:18.163Z,1029.22
2022-10-19T09:09:18.112Z,1029.17
2022-10-19T09:10:18.094Z,1029.15
2022-10-19T09:11:18.048Z,1029.13
2022-10-19T09:12:18.044Z,1029.14
2022-10-19T09:13:18.030Z,1029.12
2022-10-19T09:14:18.086Z,1029.18
2022-10-19T09:15:18.017Z,1029.21
2022-10-19T09:16:18.006Z,1029.13
2022-10-19T09:17:17.985Z,1029.20
2022-10-19T09:18:17.998Z,1029.18
2022-10-19T09:19:17.963Z,1029.18
2022-10-19T09:20:17.992Z,1029.21
2022-10-19T09:21:17.942Z,1029.21
2022-10-19T09:22:17.958Z,1029.21
2022-10-19T09:23:17.961Z,1029.22
2022-10-19T09:24:17.910Z,1029.14
2022-10-19T09:25:17.910Z,1029.20
2022-10-19T09:26:17.937Z,1029.20
2022-10-19T09:27:17.872Z,1029.22
2022-10-19T09:28:17.865Z,1029.14
2022-10-19T09:29:17.867Z,1029.21
2022-10-19T09:30:17.865Z,1029.21
2022-10-19T09:31:17.823Z,1029.18
2022-10-19T09:32:17.881Z,1029.20
2022-10-19T09:33:17.807Z,1029.24
2022-10-19T09:34:17.833Z,1029.21
2022-10-19T09:35:17.805Z,1029.15
2022-10-19T09:36:22.813Z,1029.12
2022-10-19T09:37:24.814Z,1029.14
2022-10-19T09:38:17.803Z,1029.10
2022-10-19T09:39:17.751Z,1029.09
2022-10-19T09:40:17.872Z,1029.09
2022-10-19T09:41:17.731Z,1029.07
2022-10-19T09:42:17.747Z,1029.05
2022-10-19T09:43:17.705Z,1029.05
2022-10-19T09:44:17.741Z,1029.09
2022-10-19T09:45:17.683Z,1029.00
2022-10-19T09:46:20.324Z,1029.00
2022-10-19T09:47:17.669Z,1029.03
2022-10-19T09:48:17.905Z,1028.99
2022-10-19T09:49:17.634Z,1028.98
2022-10-19T09:50:18.127Z,1028.98
2022-10-19T09:51:17.604Z,1028.97
2022-10-19T09:52:17.594Z,1028.92
2022-10-19T09:53:17.603Z,1028.93
2022-10-19T09:54:17.581Z,1028.99
2022-10-19T09:55:17.580Z,1028.98
2022-10-19T09:56:17.598Z,1029.00
2022-10-19T09:57:17.535Z,1029.05
2022-10-19T09:58:17.686Z,1029.04
2022-10-19T09:59:17.625Z,1029.07
2022-10-19T10:00:17.633Z,1029.06
2022-10-19T10:01:17.493Z,1029.09
2022-10-19T10:02:17.550Z,1029.06
2022-10-19T10:03:17.470Z,1029.11
2022-10-19T10:04:17.481Z,1029.11
2022-10-19T10:05:17.459Z,1029.12
2022-10-19T10:06:17.453Z,1029.11
2022-10-19T10:07:17.432Z,1029.06
2022-10-19T10:08:17.487Z,1029.06
2022-10-19T10:09:17.420Z,1029.05
2022-10-19T10:10:17.420Z,1029.09
2022-10-19T10:11:17.413Z,1029.09
2022-10-19T10:12:17.900Z,1029.06
2022-10-19T10:13:17.352Z,1029.08
2022-10-19T10:14:17.429Z,1029.08
2022-10-19T10:15:17.335Z,1029.06
2022-10-19T10:16:17.320Z,1029.05
2022-10-19T10:17:17.389Z,1029.06
2022-10-19T10:18:17.346Z,1029.02
2022-10-19T10:19:17.326Z,1029.06
2022-10-19T10:20:17.336Z,1029.08
2022-10-19T10:21:18.057Z,1029.05
2022-10-19T10:22:17.284Z,1028.98
2022-10-19T10:23:17.963Z,1029.03
2022-10-19T10:24:17.295Z,1028.97
2022-10-19T10:25:17.227Z,1028.98
2022-10-19T10:26:17.316Z,1028.95
2022-10-19T10:27:17.210Z,1028.86
2022-10-19T10:28:17.187Z,1028.86
2022-10-19T10:29:17.199Z,1028.84
2022-10-19T10:30:17.177Z,1028.77
2022-10-19T10:31:17.166Z,1028.78
2022-10-19T10:32:17.185Z,1028.74
2022-10-19T10:33:27.130Z,1028.73
2022-10-19T10:34:23.217Z,1028.76
2022-10-19T10:35:17.130Z,1028.77
2022-10-19T10:36:17.106Z,1028.78
2022-10-19T10:37:17.081Z,1028.88
2022-10-19T10:38:17.134Z,1028.90
2022-10-19T10:39:17.058Z,1028.93
2022-10-19T10:40:19.999Z,1028.93
2022-10-19T10:41:17.076Z,1028.86
2022-10-19T10:42:17.050Z,1028.91
2022-10-19T10:43:17.057Z,1028.83
2022-10-19T10:44:17.112Z,1028.86
2022-10-19T10:45:18.009Z,1028.89
2022-10-19T10:46:17.033Z,1028.84
2022-10-19T10:47:17.090Z,1028.83
2022-10-19T10:48:17.035Z,1028.81
2022-10-19T10:49:16.956Z,1028.84
2022-10-19T10:50:17.001Z,1028.88
2022-10-19T10:51:16.928Z,1028.88
2022-10-19T10:52:16.912Z,1028.90
2022-10-19T10:53:16.960Z,1028.91
2022-10-19T10:54:16.900Z,1028.91
2022-10-19T10:55:16.898Z,1028.93
2022-10-19T10:56:16.929Z,1028.95
2022-10-19T10:57:17.074Z,1028.92
2022-10-19T10:58:16.903Z,1028.92
2022-10-19T10:59:16.880Z,1028.91
2022-10-19T11:00:16.852Z,1028.87
2022-10-19T11:01:16.854Z,1028.86
2022-10-19T11:02:16.961Z,1028.83
2022-10-19T11:03:17.034Z,1028.78
2022-10-19T11:04:16.784Z,1028.83
2022-10-19T11:05:16.779Z,1028.80
2022-10-19T11:06:16.834Z,1028.74
2022-10-19T11:07:16.778Z,1028.73
2022-10-19T11:08:16.821Z,1028.74
2022-10-19T11:09:16.765Z,1028.79
2022-10-19T11:10:16.722Z,1028.82
2022-10-19T11:11:16.724Z,1028.74
2022-10-19T11:12:16.738Z,1028.74
2022-10-19T11:13:16.734Z,1028.71
2022-10-19T11:14:16.744Z,1028.71
2022-10-19T11:15:16.708Z,1028.69
2022-10-19T11:16:16.666Z,1028.66
2022-10-19T11:17:16.655Z,1028.66
2022-10-19T11:18:16.847Z,1028.60
2022-10-19T11:19:16.638Z,1028.60
2022-10-19T11:20:16.693Z,1028.67
2022-10-19T11:21:16.607Z,1028.60
2022-10-19T11:22:16.581Z,1028.60
2022-10-19T11:23:16.618Z,1028.53
2022-10-19T11:24:16.558Z,1028.50
2022-10-19T11:25:16.586Z,1028.50
2022-10-19T11:26:16.609Z,1028.42
2022-10-19T11:27:16.548Z,1028.45
2022-10-19T11:28:16.578Z,1028.42
2022-10-19T11:29:16.512Z,1028.40
2022-10-19T11:30:16.492Z,1028.40
2022-10-19T11:31:16.534Z,1028.39
2022-10-19T11:32:16.474Z,1028.34
2022-10-19T11:33:16.463Z,1028.38
2022-10-19T11:34:16.783Z,1028.40
2022-10-19T11:35:16.447Z,1028.38
2022-10-19T11:36:16.470Z,1028.36
2022-10-19T11:37:16.436Z,1028.33
2022-10-19T11:38:21.415Z,1028.35
2022-10-19T11:39:16.647Z,1028.35
2022-10-19T11:40:19.906Z,1028.28
2022-10-19T11:41:18.597Z,1028.30
2022-10-19T11:42:16.360Z,1028.29
2022-10-19T11:43:16.396Z,1028.29
2022-10-19T11:44:16.348Z,1028.31
2022-10-19T11:45:16.348Z,1028.32
2022-10-19T11:46:16.354Z,1028.28
2022-10-19T11:47:16.310Z,1028.27
2022-10-19T11:48:16.299Z,1028.23
2022-10-19T11:49:16.288Z,1028.16
2022-10-19T11:50:16.276Z,1028.15
2022-10-19T11:51:21.673Z,1028.18
2022-10-19T11:52:16.289Z,1028.15
2022-10-19T11:53:16.249Z,1028.17
2022-10-19T11:54:16.246Z,1028.13
2022-10-19T11:55:16.224Z,1028.14
2022-10-19T11:56:16.209Z,1028.09
2022-10-19T11:57:16.227Z,1028.13
2022-10-19T11:58:16.184Z,1028.13
2022-10-19T11:59:16.172Z,1028.13
2022-10-19T12:00:37.715Z,1028.10
2022-10-19T12:01:16.203Z,1028.13
2022-10-19T12:02:16.194Z,1028.12
2022-10-19T12:03:16.162Z,1028.12
2022-10-19T12:04:16.123Z,1028.14
2022-10-19T12:05:16.105Z,1028.07
2022-10-19T12:06:16.110Z,1028.12